Eureka, North Carolina
Current Conditions -  °F | °C
As of 8:15 AM on Wednesday 22 Oct 2014 (Local Time) from KGWW Reporting Station
Clear Clear  
Wind Chill: 10°   Ceiling: Unl
Heat Index: 10°   Visibility: 10mi
Dew Point:   Wind: 3mph
Humidity: 81%   Direction: 300°WNW
Pressure: 29.95"   Gusts: NA
Location:  35.5277°N, 77.996°W
Report Text: KGWW 221215Z AUTO 30003KT 10SM CLR 10/07 A2995 RMK AO2 T00970065
Loading
Personal Weather Stations






























Interactive Weather Map
Tropical Storm Tracking
New forecast layout! Learn more

10-Day Weather Forecast

Advertisements
Track Severe Weather on mobile